Aviation Digital Data Service (ADDS)

Output produced by METARs form (1351 UTC 17 December 2017)
found at http://www.aviationweather.gov/adds/metars/
 
KLGA 171139Z 1712/1818 36005KT P6SM SCT045 BKN070 
     FM172000 VRB05KT P6SM FEW045 OVC150 
     FM180400 VRB03KT P6SM SCT025 OVC080 
     FM180700 VRB03KT P6SM BKN020 
     FM181500 27007KT P6SM SCT020 BKN080